Terminal Aerodrome Forecast
Issued by NWS Topeka, KS

Home | Current Version | Previous Version | Text Only | Print | Product List | Glossary On
Versions: 1 2 3 4 5 6 7 8 9 10 11 12 13 14 15
000
FTUS43 KTOP 161404 AAA
TAFTOP
TAF AMD
KTOP 161404Z 1614/1712 33012KT P6SM OVC029
     FM161500 33005KT P6SM SCT035
     FM162100 VRB03KT P6SM FEW250
     FM170300 09008KT P6SM SCT250=

USA.gov is the U.S. government's official web portal to all federal, state and local government web resources and services.